METAR Data
IDs: Format: Raw Decoded Include TAF

Data at: 0112 UTC 25 Mar 2019

KIOW 250052Z AUTO 05009KT 9SM OVC011 09/07 A3006 RMK AO2 SLP181 T00890067
KIOW 242352Z AUTO 04012KT 7SM OVC012 09/07 A3003 RMK AO2 SLP172 T00940072 10117 20094 52006
KIOW 242324Z AUTO 04012KT 7SM OVC014 10/07 A3002 RMK AO2 T01000072
KIOW 242252Z AUTO 04011KT 7SM OVC017 10/07 A3002 RMK AO2 SLP170 T01000072
KIOW 242152Z AUTO 05007KT 8SM OVC015 11/07 A3002 RMK AO2 SLP169 T01060072
KIOW 242052Z AUTO 07005KT 6SM HZ OVC017 11/07 A3001 RMK AO2 SLP165 T01110072 55006
KIOW 241952Z AUTO 10003KT 10SM OVC015 12/08 A3000 RMK AO2 SLP160 T01170078
KIOW 241944Z AUTO 13005KT 10SM OVC015 11/08 A3000 RMK AO2 T01110078
KIOW 241852Z AUTO 12004KT 9SM OVC012 11/08 A3000 RMK AO2 SLP163 T01060078
KIOW 241752Z AUTO 18006KT 8SM OVC011 11/08 A3003 RMK AO2 SLP172 60005 T01060078 10106 20061 58004
KIOW 241733Z AUTO 14007KT 8SM OVC011 11/08 A3004 RMK AO2 T01060078
KIOW 241718Z AUTO 14006KT 1 1/2SM HZ OVC010 10/07 A3003 RMK AO2 T01000072
KIOW 241709Z AUTO 13008KT 7SM OVC010 10/08 A3003 RMK AO2 T01000078
KIOW 241659Z AUTO 13007KT 7SM OVC009 10/08 A3004 RMK AO2 T01000078
KIOW 241652Z AUTO 13009KT 7SM OVC010 10/08 A3004 RMK AO2 SLP176 T01000078
KIOW 241628Z AUTO 14007KT 6SM BR OVC010 10/08 A3005 RMK AO2 CIG 007V013 T01000078
KIOW 241552Z AUTO 12006KT 5SM BR OVC006 09/08 A3005 RMK AO2 CIG 005V011 SLP178 T00890078
KIOW 241544Z AUTO 11006KT 5SM BR OVC006 09/07 A3005 RMK AO2 CIG 004V011 T00890072
KIOW 241514Z AUTO 12007KT 4SM BR OVC005 08/07 A3005 RMK AO2 T00780067
KIOW 241452Z AUTO 09005KT 4SM BR BKN004 OVC028 08/07 A3005 RMK AO2 SLP177 60005 T00780067 58004
KIOW 241444Z AUTO 11005KT 4SM BR BKN004 OVC028 08/07 A3005 RMK AO2 T00780067
KIOW 241423Z AUTO 10005KT 4SM BR OVC005 07/06 A3006 RMK AO2 T00720061
KIOW 241352Z AUTO 09004KT 5SM BR BKN007 OVC028 07/06 A3006 RMK AO2 CIG 005V010 SLP182 T00720061
KIOW 241348Z AUTO 10005KT 5SM BR BKN007 OVC028 07/06 A3006 RMK AO2 CIG 005V010
KIOW 241331Z AUTO 10005KT 5SM BR FEW007 OVC029 07/06 A3006 RMK AO2 T00670056
KIOW 241307Z AUTO 08004KT 5SM BR FEW007 OVC030 07/06 A3006 RMK AO2 T00670056
KIOW 241252Z AUTO 09004KT 6SM BR OVC030 07/06 A3006 RMK AO2 RAB02E32 SLP181 P0005 T00670056
KIOW 241244Z AUTO 10004KT 5SM BR FEW021 OVC030 07/06 A3006 RMK AO2 RAB02E32 P0005 T00670056
KIOW 241152Z AUTO 10003KT 10SM FEW009 OVC028 07/05 A3006 RMK AO2 SLP182 60007 70007 T00670050 10078 20061 56004
KIOW 241141Z AUTO 10004KT 10SM SCT009 OVC030 06/05 A3006 RMK AO2 T00610050
KIOW 241130Z AUTO 10004KT 10SM BKN009 OVC034 06/05 A3006 RMK AO2 T00610050
KIOW 241121Z AUTO 11003KT 10SM SCT009 OVC034 07/05 A3006 RMK AO2 T00670050
KIOW 241114Z AUTO 09003KT 10SM BKN009 OVC036 07/05 A3006 RMK AO2 T00670050
KIOW 241052Z AUTO 07004KT 9SM BKN010 BKN015 OVC029 07/04 A3006 RMK AO2 RAE52 SLP182 P0001 T00670044
KIOW 241047Z AUTO 07004KT 9SM -RA SCT010 BKN015 OVC031 07/04 A3006 RMK AO2 P0001
KIOW 241028Z AUTO 10005KT 9SM -RA FEW011 SCT021 OVC032 07/04 A3007 RMK AO2 P0001 T00670044
KIOW 240952Z AUTO 10004KT 10SM -RA OVC021 07/04 A3007 RMK AO2 SLP185 P0005 T00670039
KIOW 240852Z AUTO 10003KT 10SM -RA BKN026 BKN038 OVC060 07/03 A3009 RMK AO2 RAB26 SLP191 P0001 60001 T00720028 58014
KIOW 240752Z AUTO 10004KT 10SM OVC065 08/02 A3011 RMK AO2 SLP197 T00780022
KIOW 240652Z AUTO 11004KT 10SM BKN060 OVC070 07/02 A3012 RMK AO2 SLP201 T00720022
KIOW 240552Z AUTO 11004KT 10SM OVC070 07/02 A3013 RMK AO2 RAE07 SLP205 P0000 60000 T00720022 10106 20072 401391028 58006
KIOW 240452Z AUTO 13005KT 10SM -RA OVC060 07/02 A3015 RMK AO2 RAB0357 SLP212 P0000 T00720022
KIOW 240352Z AUTO 16004KT 10SM SCT065 OVC085 08/01 A3016 RMK AO2 SLP216 T00780011
KIOW 240252Z AUTO 14008KT 10SM FEW120 08/01 A3015 RMK AO2 SLP214 T00830006 56006
KIOW 240152Z AUTO 14005KT 10SM BKN120 09/01 A3016 RMK AO2 SLP215 T00890006
KIOW 240052Z AUTO 12004KT 10SM BKN110 09/01 A3015 RMK AO2 SLP215 T00940006
KIOW 232352Z AUTO 13005KT 10SM FEW120 11/01 A3017 RMK AO2 SLP221 T01060006 10139 20106 56012
KIOW 232252Z AUTO 12010KT 10SM OVC120 12/M01 A3017 RMK AO2 SLP221 T01171006
KIOW 232152Z AUTO 14009KT 10SM BKN110 12/M01 A3018 RMK AO2 SLP226 T01221006
KIOW 232052Z AUTO 16011KT 10SM CLR 13/M01 A3020 RMK AO2 SLP231 T01281006 56016
KIOW 231952Z AUTO 13010G17KT 10SM CLR 13/M01 A3021 RMK AO2 SLP234 T01281006
KIOW 231852Z AUTO 16008KT 10SM CLR 12/M01 A3024 RMK AO2 SLP243 T01221011
KIOW 231752Z AUTO 16013G20KT 10SM CLR 12/M01 A3025 RMK AO2 SLP248 T01171011 10122 21022 58015
KIOW 231652Z AUTO 13009KT 10SM CLR 10/01 A3027 RMK AO2 SLP255 T01000006
KIOW 231552Z AUTO 13007KT 10SM CLR 07/01 A3029 RMK AO2 SLP261 T00720006
KIOW 231452Z AUTO 14007KT 10SM CLR 04/01 A3030 RMK AO2 SLP266 T00440006 50006
KIOW 231352Z AUTO 13005KT 10SM CLR 02/M01 A3030 RMK AO2 SLP266 T00171011